createdAt,value
2023-11-15T00:00:19.629Z,97050.60
2023-11-15T00:03:08.604Z,97052.34
2023-11-15T00:05:37.050Z,97049.23
2023-11-15T00:08:05.376Z,97049.41
2023-11-15T00:10:33.454Z,97043.00
2023-11-15T00:13:01.457Z,97039.09
2023-11-15T00:15:31.931Z,97040.63
2023-11-15T00:18:05.829Z,97042.27
2023-11-15T00:20:35.027Z,97038.13
2023-11-15T00:23:04.136Z,97037.14
2023-11-15T00:25:32.595Z,97035.42
2023-11-15T00:28:00.661Z,97033.87
2023-11-15T00:30:28.892Z,97028.48
2023-11-15T00:32:57.110Z,97028.97
2023-11-15T00:35:26.727Z,97024.96
2023-11-15T00:37:55.842Z,97032.80
2023-11-15T00:40:23.947Z,97032.33
2023-11-15T00:42:52.245Z,97028.66
2023-11-15T00:45:20.178Z,97032.36
2023-11-15T00:47:48.488Z,97027.64
2023-11-15T00:50:16.546Z,97026.36
2023-11-15T00:52:44.515Z,97027.46
2023-11-15T00:55:13.608Z,97028.83
2023-11-15T00:57:41.888Z,97029.14
2023-11-15T01:00:23.161Z,97028.00
2023-11-15T01:02:52.710Z,97020.89
2023-11-15T01:05:20.869Z,97020.38
2023-11-15T01:07:51.784Z,97020.52
2023-11-15T01:10:20.674Z,97029.58
2023-11-15T01:12:48.835Z,97030.34
2023-11-15T01:15:17.298Z,97033.55
2023-11-15T01:17:46.730Z,97036.02
2023-11-15T01:20:16.283Z,97034.10
2023-11-15T01:22:44.561Z,97032.02
2023-11-15T01:25:14.014Z,97032.61
2023-11-15T01:27:42.090Z,97030.52
2023-11-15T01:30:10.371Z,97034.20
2023-11-15T01:32:38.440Z,97033.89
2023-11-15T01:35:07.078Z,97035.09
2023-11-15T01:37:34.980Z,97033.11
2023-11-15T01:40:03.041Z,97033.52
2023-11-15T01:42:30.984Z,97036.06
2023-11-15T01:44:58.901Z,97034.15
2023-11-15T01:47:27.095Z,97030.66
2023-11-15T01:49:55.312Z,97030.50
2023-11-15T01:52:23.815Z,97029.90
2023-11-15T01:54:56.254Z,97032.23
2023-11-15T01:57:24.454Z,97027.16
2023-11-15T01:59:52.831Z,97025.16
2023-11-15T02:02:21.396Z,97021.71
2023-11-15T02:04:49.277Z,97024.83
2023-11-15T02:07:17.745Z,97024.83
2023-11-15T02:09:46.281Z,97025.61
2023-11-15T02:12:15.567Z,97023.07
2023-11-15T02:14:43.727Z,97022.96
2023-11-15T02:17:11.938Z,97025.79
2023-11-15T02:19:40.162Z,97021.23
2023-11-15T02:22:08.108Z,97017.48
2023-11-15T02:24:36.641Z,97020.68
2023-11-15T02:27:05.197Z,97019.80
2023-11-15T02:29:33.261Z,97018.89
2023-11-15T02:32:01.289Z,97019.17
2023-11-15T02:34:29.433Z,97022.98
2023-11-15T02:36:57.611Z,97026.61
2023-11-15T02:39:25.763Z,97020.71
2023-11-15T02:41:54.143Z,97028.29
2023-11-15T02:44:22.296Z,97025.70
2023-11-15T02:46:50.311Z,97025.92
2023-11-15T02:49:18.332Z,97030.79
2023-11-15T02:51:48.218Z,97025.50
2023-11-15T02:54:16.155Z,97030.34
2023-11-15T02:56:44.078Z,97030.84
2023-11-15T02:59:12.706Z,97030.73
2023-11-15T03:01:48.946Z,97035.76
2023-11-15T03:04:18.132Z,97032.10
2023-11-15T03:06:46.101Z,97030.98
2023-11-15T03:09:15.041Z,97032.06
2023-11-15T03:11:44.122Z,97036.32
2023-11-15T03:14:12.180Z,97039.77
2023-11-15T03:16:42.129Z,97037.72
2023-11-15T03:19:10.290Z,97037.23
2023-11-15T03:21:39.480Z,97039.79
2023-11-15T03:24:09.066Z,97037.67
2023-11-15T03:26:37.968Z,97038.71
2023-11-15T03:29:06.394Z,97035.73
2023-11-15T03:31:35.300Z,97037.75
2023-11-15T03:34:03.329Z,97038.59
2023-11-15T03:36:33.971Z,97037.50
2023-11-15T03:39:02.326Z,97036.98
2023-11-15T03:41:31.112Z,97044.55
2023-11-15T03:43:59.079Z,97037.79
2023-11-15T03:46:27.919Z,97041.21
2023-11-15T03:48:56.363Z,97040.17
2023-11-15T03:51:24.312Z,97038.92
2023-11-15T03:53:52.339Z,97040.05
2023-11-15T03:56:20.268Z,97042.95
2023-11-15T03:58:49.111Z,97043.60
2023-11-15T04:01:17.816Z,97049.57
2023-11-15T04:03:47.067Z,97054.52
2023-11-15T04:06:15.352Z,97055.65
2023-11-15T04:08:43.414Z,97050.83
2023-11-15T04:11:11.572Z,97051.17
2023-11-15T04:13:39.541Z,97050.38
2023-11-15T04:16:08.761Z,97052.30
2023-11-15T04:18:37.138Z,97051.96
2023-11-15T04:21:05.610Z,97054.98
2023-11-15T04:23:33.781Z,97051.91
2023-11-15T04:26:01.985Z,97048.50
2023-11-15T04:28:30.173Z,97045.08
2023-11-15T04:30:58.255Z,97038.45
2023-11-15T04:33:26.582Z,97036.75
2023-11-15T04:35:54.655Z,97039.33
2023-11-15T04:38:22.766Z,97042.29
2023-11-15T04:40:50.667Z,97036.52
2023-11-15T04:43:18.546Z,97039.17
2023-11-15T04:45:46.519Z,97040.80
2023-11-15T04:48:14.507Z,97037.38
2023-11-15T04:50:42.495Z,97040.48
2023-11-15T04:53:10.619Z,97040.86
2023-11-15T04:55:38.575Z,97045.40
2023-11-15T04:58:07.074Z,97048.08
2023-11-15T05:00:35.036Z,97050.10
2023-11-15T05:03:04.545Z,97049.17
2023-11-15T05:05:32.637Z,97049.16
2023-11-15T05:08:00.778Z,97055.64
2023-11-15T05:10:28.845Z,97050.84
2023-11-15T05:12:57.129Z,97053.59
2023-11-15T05:15:25.064Z,97051.20
2023-11-15T05:17:52.989Z,97051.14
2023-11-15T05:20:21.419Z,97046.81
2023-11-15T05:22:49.448Z,97048.90
2023-11-15T05:25:17.519Z,97046.03
2023-11-15T05:27:46.519Z,97048.51
2023-11-15T05:30:15.722Z,97048.36
2023-11-15T05:32:45.046Z,97048.70
2023-11-15T05:35:13.213Z,97050.81
2023-11-15T05:37:41.261Z,97053.67
2023-11-15T05:40:09.525Z,97053.23
2023-11-15T05:42:37.444Z,97055.81
2023-11-15T05:45:06.114Z,97054.95
2023-11-15T05:47:34.138Z,97062.83
2023-11-15T05:50:02.181Z,97062.98
2023-11-15T05:52:30.621Z,97063.98
2023-11-15T05:54:58.654Z,97070.59
2023-11-15T05:57:26.783Z,97070.29
2023-11-15T05:59:54.933Z,97077.85
2023-11-15T06:02:22.851Z,97084.85
2023-11-15T06:04:56.547Z,97093.77
2023-11-15T06:07:26.464Z,97094.23
2023-11-15T06:09:54.425Z,97092.53
2023-11-15T06:12:23.610Z,97097.70
2023-11-15T06:14:51.708Z,97101.95
2023-11-15T06:17:19.680Z,97103.34
2023-11-15T06:19:54.785Z,97103.39
2023-11-15T06:22:27.067Z,97111.65
2023-11-15T06:24:55.025Z,97111.73
2023-11-15T06:27:23.995Z,97115.35
2023-11-15T06:29:52.102Z,97116.36
2023-11-15T06:32:20.116Z,97119.44
2023-11-15T06:34:48.017Z,97126.09
2023-11-15T06:37:15.938Z,97129.85
2023-11-15T06:39:44.137Z,97135.67
2023-11-15T06:42:13.706Z,97141.54
2023-11-15T06:44:42.118Z,97147.08
2023-11-15T06:47:10.495Z,97150.88
2023-11-15T06:49:38.782Z,97149.46
2023-11-15T06:52:07.301Z,97153.92
2023-11-15T06:54:35.488Z,97157.26
2023-11-15T06:57:04.475Z,97158.23
2023-11-15T06:59:32.427Z,97159.87
2023-11-15T07:02:01.835Z,97158.20
2023-11-15T07:04:31.448Z,97160.00
2023-11-15T07:06:59.559Z,97161.55
2023-11-15T07:09:28.544Z,97170.13
2023-11-15T07:11:58.023Z,97172.27
2023-11-15T07:14:27.773Z,97177.17
2023-11-15T07:16:59.697Z,97174.42
2023-11-15T07:19:29.049Z,97178.45
2023-11-15T07:21:58.367Z,97177.48
2023-11-15T07:24:26.500Z,97182.06
2023-11-15T07:26:54.428Z,97182.71
2023-11-15T07:29:22.906Z,97187.94
2023-11-15T07:31:54.693Z,97191.08
2023-11-15T07:34:24.391Z,97195.23
2023-11-15T07:36:59.468Z,97200.71
2023-11-15T07:39:27.609Z,97203.41
2023-11-15T07:42:01.891Z,97207.45
2023-11-15T07:44:31.891Z,97213.49
2023-11-15T07:47:03.159Z,97220.00
2023-11-15T07:49:31.099Z,97226.63
2023-11-15T07:52:00.272Z,97226.11
2023-11-15T07:54:28.229Z,97228.55
2023-11-15T07:56:57.422Z,97232.94
2023-11-15T07:59:27.390Z,97233.28
2023-11-15T08:01:55.496Z,97239.36
2023-11-15T08:04:23.576Z,97242.58
2023-11-15T08:06:52.138Z,97242.76
2023-11-15T08:09:26.934Z,97245.52
2023-11-15T08:11:57.562Z,97250.64
2023-11-15T08:14:27.217Z,97251.05
2023-11-15T08:16:56.368Z,97257.35
2023-11-15T08:19:25.503Z,97254.25
2023-11-15T08:21:53.535Z,97258.35
2023-11-15T08:24:24.326Z,97265.16
2023-11-15T08:26:56.062Z,97268.63
2023-11-15T08:29:24.763Z,97268.55
2023-11-15T08:31:52.742Z,97273.64
2023-11-15T08:34:23.979Z,97286.34
2023-11-15T08:36:53.057Z,97285.54
2023-11-15T08:39:23.911Z,97292.56
2023-11-15T08:41:51.910Z,97299.77
2023-11-15T08:44:19.949Z,97300.27
2023-11-15T08:46:49.354Z,97307.83
2023-11-15T08:49:18.004Z,97310.39
2023-11-15T08:51:48.622Z,97315.38
2023-11-15T08:54:17.616Z,97315.67
2023-11-15T08:56:47.009Z,97320.16
2023-11-15T08:59:16.019Z,97323.08
2023-11-15T09:01:46.526Z,97330.16
2023-11-15T09:04:17.613Z,97330.34
2023-11-15T09:06:49.743Z,97338.67
2023-11-15T09:09:18.961Z,97345.55
2023-11-15T09:11:48.705Z,97350.35
2023-11-15T09:14:17.593Z,97349.80
2023-11-15T09:16:46.354Z,97352.05
2023-11-15T09:19:18.441Z,97351.65
2023-11-15T09:21:50.066Z,97356.10
2023-11-15T09:24:23.062Z,97350.09
2023-11-15T09:26:52.440Z,97348.64
2023-11-15T09:29:21.080Z,97351.23
2023-11-15T09:31:49.353Z,97355.46
2023-11-15T09:34:18.276Z,97354.33
2023-11-15T09:36:46.457Z,97358.05
2023-11-15T09:39:17.893Z,97360.93
2023-11-15T09:41:55.318Z,97359.98
2023-11-15T09:44:25.342Z,97368.85
2023-11-15T09:46:55.210Z,97366.13
2023-11-15T09:49:26.368Z,97370.66
2023-11-15T09:51:55.467Z,97372.23
2023-11-15T09:54:25.201Z,97375.14
2023-11-15T09:56:53.357Z,97381.23
2023-11-15T09:59:21.300Z,97380.38
2023-11-15T10:01:50.696Z,97381.67
2023-11-15T10:04:22.197Z,97382.38
2023-11-15T10:06:59.773Z,97383.61
2023-11-15T10:09:41.830Z,97392.80
2023-11-15T10:12:12.183Z,97397.13
2023-11-15T10:14:53.462Z,97401.65
2023-11-15T10:17:39.758Z,97405.10
2023-11-15T10:20:19.912Z,97407.09
2023-11-15T10:22:48.572Z,97408.27
2023-11-15T10:25:16.658Z,97408.94
2023-11-15T10:27:44.551Z,97407.46
2023-11-15T10:30:17.523Z,97406.34
2023-11-15T10:32:47.178Z,97411.90
2023-11-15T10:35:29.521Z,97411.56
2023-11-15T10:37:57.969Z,97419.23
2023-11-15T10:40:31.552Z,97425.34
2023-11-15T10:43:00.254Z,97427.88
2023-11-15T10:45:31.299Z,97432.70
2023-11-15T10:48:05.425Z,97441.42
2023-11-15T10:50:39.144Z,97443.42
2023-11-15T10:53:11.477Z,97451.24
2023-11-15T10:55:41.543Z,97456.03
2023-11-15T10:58:12.753Z,97458.05
2023-11-15T11:00:45.489Z,97457.40
2023-11-15T11:03:15.320Z,97455.67
2023-11-15T11:06:04.463Z,97458.81
2023-11-15T11:09:04.557Z,97464.84
2023-11-15T11:11:46.287Z,97471.02
2023-11-15T11:14:32.434Z,97470.11
2023-11-15T11:17:01.317Z,97476.48
2023-11-15T11:19:30.087Z,97481.70
2023-11-15T11:22:00.574Z,97483.61
2023-11-15T11:24:33.414Z,97481.42
2023-11-15T11:27:15.338Z,97485.16
2023-11-15T11:29:57.876Z,97488.34
2023-11-15T11:32:33.268Z,97489.21
2023-11-15T11:35:08.079Z,97492.40
2023-11-15T11:37:48.476Z,97491.71
2023-11-15T11:40:18.384Z,97495.21
2023-11-15T11:42:49.508Z,97497.46
2023-11-15T11:45:17.686Z,97498.63
2023-11-15T11:47:47.956Z,97506.73
2023-11-15T11:50:24.505Z,97513.30
2023-11-15T11:52:57.000Z,97511.43
2023-11-15T11:55:25.787Z,97517.09
2023-11-15T11:57:53.849Z,97523.96
2023-11-15T12:00:23.306Z,97521.02
2023-11-15T12:03:01.139Z,97528.05
2023-11-15T12:05:34.145Z,97543.63
2023-11-15T12:08:04.069Z,97538.06
2023-11-15T12:10:32.387Z,97537.48
2023-11-15T12:13:05.497Z,97535.91
2023-11-15T12:15:37.400Z,97541.77
2023-11-15T12:18:05.950Z,97540.17
2023-11-15T12:20:37.497Z,97542.92
2023-11-15T12:23:10.420Z,97542.20
2023-11-15T12:25:49.621Z,97540.78
2023-11-15T12:28:32.718Z,97544.55
2023-11-15T12:31:05.128Z,97542.39
2023-11-15T12:33:35.497Z,97542.56
2023-11-15T12:36:07.859Z,97539.97
2023-11-15T12:38:36.204Z,97539.27
2023-11-15T12:41:07.406Z,97539.46
2023-11-15T12:43:36.216Z,97539.02
2023-11-15T12:46:20.488Z,97534.64
2023-11-15T12:48:50.620Z,97533.95
2023-11-15T12:51:19.782Z,97541.98
2023-11-15T12:53:47.939Z,97539.52
2023-11-15T12:56:18.803Z,97542.05
2023-11-15T12:58:48.426Z,97543.54
2023-11-15T13:01:19.669Z,97552.15
2023-11-15T13:03:56.720Z,97556.05
2023-11-15T13:06:30.607Z,97554.40
2023-11-15T13:09:03.650Z,97552.23
2023-11-15T13:11:31.732Z,97553.42
2023-11-15T13:13:59.743Z,97551.86
2023-11-15T13:16:29.082Z,97558.51
2023-11-15T13:18:58.584Z,97558.06
2023-11-15T13:21:27.547Z,97561.10
2023-11-15T13:23:55.899Z,97563.40
2023-11-15T13:26:25.788Z,97560.05
2023-11-15T13:28:54.476Z,97563.42
2023-11-15T13:31:25.787Z,97569.48
2023-11-15T13:33:57.205Z,97570.00
2023-11-15T13:36:26.990Z,97573.09
2023-11-15T13:38:55.102Z,97580.62
2023-11-15T13:41:24.809Z,97578.58
2023-11-15T13:43:53.870Z,97579.95
2023-11-15T13:46:29.929Z,97582.25
2023-11-15T13:49:03.275Z,97578.91
2023-11-15T13:51:31.933Z,97585.52
2023-11-15T13:54:00.022Z,97587.25
2023-11-15T13:56:28.094Z,97590.70
2023-11-15T13:58:57.003Z,97591.73
2023-11-15T14:01:25.673Z,97606.27
2023-11-15T14:03:53.626Z,97615.87
2023-11-15T14:06:21.587Z,97623.11
2023-11-15T14:08:56.175Z,97628.75
2023-11-15T14:11:30.719Z,97629.80
2023-11-15T14:13:58.915Z,97637.54
2023-11-15T14:16:27.132Z,97649.05
2023-11-15T14:18:56.301Z,97653.64
2023-11-15T14:21:25.602Z,97658.15
2023-11-15T14:23:53.890Z,97660.93
2023-11-15T14:26:22.023Z,97663.58
2023-11-15T14:28:50.635Z,97669.22
2023-11-15T14:31:19.250Z,97669.77
2023-11-15T14:33:47.885Z,97678.69
2023-11-15T14:36:17.435Z,97688.95
2023-11-15T14:38:48.186Z,97693.52
2023-11-15T14:41:17.816Z,97699.34
2023-11-15T14:43:46.914Z,97698.08
2023-11-15T14:46:18.098Z,97697.23
2023-11-15T14:48:46.163Z,97699.39
2023-11-15T14:51:14.383Z,97700.18
2023-11-15T14:53:54.082Z,97697.35
2023-11-15T14:56:23.551Z,97704.20
2023-11-15T14:58:54.777Z,97701.59
2023-11-15T15:01:25.474Z,97708.48
2023-11-15T15:03:54.148Z,97713.83
2023-11-15T15:06:22.733Z,97722.16
2023-11-15T15:08:50.938Z,97721.26
2023-11-15T15:11:18.946Z,97726.02
2023-11-15T15:13:46.857Z,97721.23
2023-11-15T15:16:16.364Z,97725.07
2023-11-15T15:18:44.490Z,97724.92
2023-11-15T15:21:12.441Z,97724.52
2023-11-15T15:23:40.357Z,97729.42
2023-11-15T15:26:08.716Z,97737.63
2023-11-15T15:28:36.914Z,97745.04
2023-11-15T15:31:06.342Z,97755.33
2023-11-15T15:33:35.126Z,97764.39
2023-11-15T15:36:04.058Z,97766.80
2023-11-15T15:38:32.075Z,97771.12
2023-11-15T15:41:02.016Z,97776.80
2023-11-15T15:43:31.943Z,97784.50
2023-11-15T15:45:59.955Z,97786.88
2023-11-15T15:48:27.962Z,97797.09
2023-11-15T15:50:56.156Z,97798.70
2023-11-15T15:53:24.419Z,97805.14
2023-11-15T15:55:53.607Z,97811.22
2023-11-15T15:58:22.830Z,97812.25
2023-11-15T16:00:50.798Z,97810.73
2023-11-15T16:03:18.806Z,97823.11
2023-11-15T16:05:47.071Z,97824.00
2023-11-15T16:08:15.053Z,97834.61
2023-11-15T16:10:43.428Z,97839.15
2023-11-15T16:13:11.448Z,97844.91
2023-11-15T16:15:39.443Z,97853.95
2023-11-15T16:18:07.452Z,97857.85
2023-11-15T16:20:35.451Z,97860.98
2023-11-15T16:23:03.492Z,97865.15
2023-11-15T16:25:33.528Z,97870.11
2023-11-15T16:28:01.453Z,97876.37
2023-11-15T16:30:32.620Z,97877.60
2023-11-15T16:33:01.151Z,97876.41
2023-11-15T16:35:31.027Z,97887.39
2023-11-15T16:37:58.996Z,97897.73
2023-11-15T16:40:26.960Z,97905.56
2023-11-15T16:42:54.975Z,97910.46
2023-11-15T16:45:25.615Z,97919.59
2023-11-15T16:47:53.683Z,97921.70
2023-11-15T16:50:21.655Z,97926.55
2023-11-15T16:52:51.261Z,97930.08
2023-11-15T16:55:19.169Z,97932.85
2023-11-15T16:57:47.118Z,97934.45
2023-11-15T17:00:15.770Z,97935.44
2023-11-15T17:02:45.605Z,97938.61
2023-11-15T17:05:13.727Z,97943.14
2023-11-15T17:07:41.569Z,97945.88
2023-11-15T17:10:09.661Z,97948.41
2023-11-15T17:12:37.546Z,97943.98
2023-11-15T17:15:07.719Z,97951.37
2023-11-15T17:17:35.688Z,97958.08
2023-11-15T17:20:06.373Z,97958.52
2023-11-15T17:22:36.831Z,97962.77
2023-11-15T17:25:18.794Z,97967.36
2023-11-15T17:27:48.105Z,97972.45
2023-11-15T17:30:16.271Z,97974.77
2023-11-15T17:32:44.354Z,97977.46
2023-11-15T17:35:12.334Z,97977.26
2023-11-15T17:37:40.963Z,97980.36
2023-11-15T17:40:12.270Z,97982.73
2023-11-15T17:42:41.476Z,97982.66
2023-11-15T17:45:09.899Z,97985.77
2023-11-15T17:47:38.033Z,97989.79
2023-11-15T17:50:07.546Z,97993.45
2023-11-15T17:52:35.502Z,97994.86
2023-11-15T17:55:03.744Z,97996.34
2023-11-15T17:57:34.702Z,97995.73
2023-11-15T18:00:06.666Z,97999.84
2023-11-15T18:02:36.778Z,98002.20
2023-11-15T18:05:04.942Z,98003.85
2023-11-15T18:07:32.876Z,98007.76
2023-11-15T18:10:01.181Z,98007.73
2023-11-15T18:12:29.318Z,98013.24
2023-11-15T18:14:57.383Z,98019.13
2023-11-15T18:17:25.553Z,98019.17
2023-11-15T18:19:53.464Z,98020.92
2023-11-15T18:22:21.393Z,98027.26
2023-11-15T18:24:49.485Z,98028.79
2023-11-15T18:27:17.494Z,98031.63
2023-11-15T18:29:45.742Z,98040.85
2023-11-15T18:32:14.148Z,98048.66
2023-11-15T18:34:42.560Z,98050.77
2023-11-15T18:37:10.436Z,98055.84
2023-11-15T18:39:38.418Z,98064.03
2023-11-15T18:42:11.775Z,98063.90
2023-11-15T18:44:44.916Z,98062.46
2023-11-15T18:47:12.920Z,98064.98
2023-11-15T18:49:44.594Z,98066.02
2023-11-15T18:52:12.515Z,98066.21
2023-11-15T18:54:40.437Z,98071.79
2023-11-15T18:57:11.247Z,98073.85
2023-11-15T18:59:39.619Z,98075.59
2023-11-15T19:02:08.942Z,98080.67
2023-11-15T19:04:37.589Z,98079.13
2023-11-15T19:07:08.516Z,98075.44
2023-11-15T19:09:37.841Z,98078.84
2023-11-15T19:12:06.882Z,98079.92
2023-11-15T19:14:36.544Z,98082.23
2023-11-15T19:17:04.914Z,98077.83
2023-11-15T19:19:32.907Z,98081.36
2023-11-15T19:22:00.907Z,98082.36
2023-11-15T19:24:28.935Z,98088.98
2023-11-15T19:26:57.085Z,98086.50
2023-11-15T19:29:36.774Z,98084.14
2023-11-15T19:32:06.209Z,98087.91
2023-11-15T19:34:34.576Z,98088.42
2023-11-15T19:37:04.483Z,98089.09
2023-11-15T19:39:33.211Z,98088.41
2023-11-15T19:42:03.737Z,98092.54
2023-11-15T19:44:32.738Z,98097.45
2023-11-15T19:47:02.167Z,98098.38
2023-11-15T19:49:31.640Z,98103.11
2023-11-15T19:52:09.436Z,98102.74
2023-11-15T19:54:37.854Z,98105.36
2023-11-15T19:57:06.311Z,98104.98
2023-11-15T19:59:34.730Z,98109.02
2023-11-15T20:02:02.829Z,98113.24
2023-11-15T20:04:32.593Z,98117.27
2023-11-15T20:07:01.411Z,98112.98
2023-11-15T20:09:33.772Z,98111.81
2023-11-15T20:12:01.691Z,98112.56
2023-11-15T20:14:29.755Z,98119.52
2023-11-15T20:16:59.177Z,98118.67
2023-11-15T20:19:27.308Z,98118.71
2023-11-15T20:21:55.845Z,98115.08
2023-11-15T20:24:24.513Z,98124.67
2023-11-15T20:26:52.610Z,98130.98
2023-11-15T20:29:21.469Z,98134.98
2023-11-15T20:31:49.962Z,98139.86
2023-11-15T20:34:19.977Z,98142.73
2023-11-15T20:36:48.162Z,98151.93
2023-11-15T20:39:23.789Z,98151.08
2023-11-15T20:41:55.083Z,98148.44
2023-11-15T20:44:23.541Z,98151.91
2023-11-15T20:46:51.669Z,98149.45
2023-11-15T20:49:22.497Z,98149.58
2023-11-15T20:51:50.615Z,98151.28
2023-11-15T20:54:20.117Z,98153.84
2023-11-15T20:56:48.214Z,98158.29
2023-11-15T20:59:16.931Z,98159.98
2023-11-15T21:01:48.112Z,98160.05
2023-11-15T21:04:23.989Z,98159.39
2023-11-15T21:06:54.124Z,98157.45
2023-11-15T21:09:25.159Z,98158.84
2023-11-15T21:11:55.185Z,98157.11
2023-11-15T21:14:23.329Z,98162.69
2023-11-15T21:16:51.326Z,98164.96
2023-11-15T21:19:19.761Z,98167.74
2023-11-15T21:21:47.796Z,98170.83
2023-11-15T21:24:15.795Z,98171.66
2023-11-15T21:26:45.437Z,98173.49
2023-11-15T21:29:13.888Z,98172.87
2023-11-15T21:31:41.884Z,98178.62
2023-11-15T21:34:09.849Z,98179.69
2023-11-15T21:36:38.667Z,98177.28
2023-11-15T21:39:09.746Z,98179.96
2023-11-15T21:41:37.820Z,98178.67
2023-11-15T21:44:05.721Z,98177.41
2023-11-15T21:46:33.836Z,98179.18
2023-11-15T21:49:01.952Z,98177.79
2023-11-15T21:51:31.056Z,98182.01
2023-11-15T21:54:01.257Z,98180.98
2023-11-15T21:56:29.318Z,98179.59
2023-11-15T21:58:58.359Z,98184.86
2023-11-15T22:01:29.228Z,98185.73
2023-11-15T22:03:57.442Z,98186.91
2023-11-15T22:06:27.153Z,98190.90
2023-11-15T22:08:55.314Z,98196.45
2023-11-15T22:11:23.473Z,98198.34
2023-11-15T22:13:51.597Z,98196.94
2023-11-15T22:16:19.537Z,98200.15
2023-11-15T22:18:47.692Z,98200.93
2023-11-15T22:21:15.645Z,98205.48
2023-11-15T22:23:46.010Z,98205.83
2023-11-15T22:26:15.564Z,98210.38
2023-11-15T22:28:44.379Z,98208.19
2023-11-15T22:31:14.282Z,98207.10
2023-11-15T22:33:42.245Z,98207.71
2023-11-15T22:36:10.406Z,98210.40
2023-11-15T22:38:38.300Z,98212.52
2023-11-15T22:41:06.465Z,98215.91
2023-11-15T22:43:34.579Z,98211.41
2023-11-15T22:46:02.555Z,98215.61
2023-11-15T22:48:30.441Z,98214.23
2023-11-15T22:50:58.595Z,98214.98
2023-11-15T22:53:26.488Z,98213.12
2023-11-15T22:55:54.410Z,98216.65
2023-11-15T22:58:22.416Z,98219.86
2023-11-15T23:00:50.951Z,98226.48
2023-11-15T23:03:20.882Z,98228.40
2023-11-15T23:05:49.999Z,98233.44
2023-11-15T23:08:18.099Z,98228.19
2023-11-15T23:10:46.334Z,98230.23
2023-11-15T23:13:16.677Z,98232.13
2023-11-15T23:15:45.025Z,98235.75
2023-11-15T23:18:19.009Z,98233.45
2023-11-15T23:20:48.462Z,98240.27
2023-11-15T23:23:16.998Z,98239.61
2023-11-15T23:25:48.282Z,98244.20
2023-11-15T23:28:16.189Z,98240.94
2023-11-15T23:30:44.089Z,98244.80
2023-11-15T23:33:13.127Z,98248.49
2023-11-15T23:35:41.187Z,98249.38
2023-11-15T23:38:09.323Z,98249.59
2023-11-15T23:40:37.376Z,98251.84
2023-11-15T23:43:05.299Z,98254.11
2023-11-15T23:45:34.040Z,98252.55
2023-11-15T23:48:02.326Z,98255.14
2023-11-15T23:50:30.265Z,98259.02
2023-11-15T23:52:58.192Z,98260.00
2023-11-15T23:55:26.102Z,98266.66
2023-11-15T23:57:55.659Z,98267.54
